Time;durP1;ratioP1;P1;durP2;ratioP2;P2;SDS_P1;SDS_P2;PMS_P1;PMS_P2;Temp;Humidity;BMP_temperature;BMP_pressure;BME280_temperature;BME280_humidity;BME280_pressure;Samples;Min_cycle;Max_cycle;Signal;HPM_P1;HPM_P2
2021/12/07 00:00:48;;;;;;;;;;;;;;;1.54;89.69;99758.84;5032625;27;20124;-77
2021/12/07 00:03:13;;;;;;;;;;;;;;;1.47;90.55;99752.41;5002911;27;20020;-78
2021/12/07 00:05:38;;;;;;;;;;;;;;;1.54;91.40;99749.25;5018301;27;19899;-78
2021/12/07 00:08:04;;;;;;;;;;;;;;;1.48;91.78;99754.03;5018096;27;20401;-78
2021/12/07 00:10:29;;;;;;;;;;;;;;;1.51;91.95;99754.69;5013513;28;19933;-79
2021/12/07 00:12:54;;;;;;;;;;;;;;;1.63;91.82;99768.66;4997779;27;20787;-79
2021/12/07 00:15:22;;;;;;;;;;;;;;;1.71;91.69;99766.38;4994224;27;20840;-78
2021/12/07 00:17:47;;;;;;;;;;;;;;;1.97;90.64;99778.56;5010508;28;19908;-78
2021/12/07 00:20:15;;;;;;;;;;;;;;;1.88;91.22;99793.09;5010005;27;19900;-80
2021/12/07 00:22:40;;;;;;;;;;;;;;;2.03;90.42;99794.66;4996413;27;20457;-79
2021/12/07 00:25:06;;;;;;;;;;;;;;;1.88;90.26;99786.09;5002943;28;20768;-79
2021/12/07 00:27:32;;;;;;;;;;;;;;;1.88;90.22;99780.88;4980227;27;20556;-79
2021/12/07 00:29:57;;;;;;;;;;;;;;;1.86;90.89;99774.06;4999664;27;19907;-78
2021/12/07 00:32:32;;;;;;;;;;;;;;;2.08;90.54;99778.66;5014151;27;19949;-78
2021/12/07 00:37:27;;;;;;;;;;;;;;;2.01;91.53;99799.13;5034239;27;20788;-78
2021/12/07 00:39:53;;;;;;;;;;;;;;;2.02;91.33;99808.63;5015920;27;19944;-79
2021/12/07 00:42:18;;;;;;;;;;;;;;;2.07;91.82;99805.69;5012810;27;19911;-78
2021/12/07 00:44:43;;;;;;;;;;;;;;;2.12;92.06;99794.97;5004934;27;19917;-78
2021/12/07 00:47:09;;;;;;;;;;;;;;;2.30;91.17;99798.91;4976597;28;20376;-78
2021/12/07 00:49:34;;;;;;;;;;;;;;;2.39;90.60;99813.06;4978194;28;20660;-78
2021/12/07 00:51:59;;;;;;;;;;;;;;;2.42;90.74;99818.06;4996604;28;20024;-78
2021/12/07 00:54:24;;;;;;;;;;;;;;;2.34;90.44;99820.38;4997054;28;19964;-79
2021/12/07 00:56:53;;;;;;;;;;;;;;;2.28;89.67;99824.25;5013901;28;20008;-80
2021/12/07 00:59:18;;;;;;;;;;;;;;;2.35;89.76;99822.88;4995563;28;20339;-79
2021/12/07 01:01:43;;;;;;;;;;;;;;;2.40;89.60;99828.63;4996690;28;19915;-78
2021/12/07 01:04:09;;;;;;;;;;;;;;;2.34;89.77;99831.69;4997255;28;19908;-78
2021/12/07 01:06:47;;;;;;;;;;;;;;;2.38;90.29;99840.97;4996307;28;20246;-77
2021/12/07 01:09:32;;;;;;;;;;;;;;;2.49;88.31;99834.16;4987132;28;19901;-79
2021/12/07 01:25:40;;;;;;;;;;;;;;;2.16;89.44;99854.66;4997901;28;20327;-78
2021/12/07 01:28:15;;;;;;;;;;;;;;;2.09;89.31;99852.56;4980700;28;20157;-78
2021/12/07 01:30:56;;;;;;;;;;;;;;;2.02;88.93;99863.41;4980239;28;20311;-78
2021/12/07 01:33:38;;;;;;;;;;;;;;;2.02;89.65;99863.41;4997834;28;20280;-78
2021/12/07 01:41:27;;;;;;;;;;;;;;;2.17;89.67;99872.00;5006194;28;20008;-78
2021/12/07 01:46:59;;;;;;;;;;;;;;;2.20;90.82;99881.38;4970890;28;20146;-78
2021/12/07 01:52:37;;;;;;;;;;;;;;;2.23;90.47;99886.41;5009186;28;20400;-76
2021/12/07 02:00:33;;;;;;;;;;;;;;;2.23;90.70;99896.84;4955594;28;19927;-77
2021/12/07 02:02:58;;;;;;;;;;;;;;;2.28;91.00;99909.56;4955009;28;19973;-77
2021/12/07 02:05:23;;;;;;;;;;;;;;;2.27;91.78;99919.19;4959524;27;20436;-78
2021/12/07 02:07:49;;;;;;;;;;;;;;;2.28;91.21;99918.22;4942178;28;19908;-77
2021/12/07 02:10:18;;;;;;;;;;;;;;;2.25;91.28;99912.41;4945855;28;20222;-77
2021/12/07 02:12:46;;;;;;;;;;;;;;;2.25;91.68;99925.44;4944625;28;19920;-76
2021/12/07 02:15:13;;;;;;;;;;;;;;;2.25;91.43;99931.50;4940199;28;19952;-77
2021/12/07 02:17:38;;;;;;;;;;;;;;;2.31;91.63;99946.72;4954915;28;19912;-79
2021/12/07 02:20:04;;;;;;;;;;;;;;;2.38;91.38;99941.94;4958159;28;20421;-78
2021/12/07 02:22:29;;;;;;;;;;;;;;;2.52;91.65;99946.22;4969869;28;19912;-77
2021/12/07 02:24:55;;;;;;;;;;;;;;;2.61;91.71;99953.44;4973669;28;20449;-77
2021/12/07 02:27:20;;;;;;;;;;;;;;;2.79;91.72;99960.94;4970011;28;20009;-77
2021/12/07 02:29:45;;;;;;;;;;;;;;;3.04;91.05;99966.13;4971629;28;19998;-77
2021/12/07 02:32:11;;;;;;;;;;;;;;;2.92;90.86;99973.06;4978659;28;19924;-77
2021/12/07 02:34:42;;;;;;;;;;;;;;;2.80;91.83;99978.31;4987396;27;19912;-79
2021/12/07 02:37:07;;;;;;;;;;;;;;;2.83;92.05;99991.97;4970841;27;20249;-77
2021/12/07 02:39:34;;;;;;;;;;;;;;;2.88;92.48;99978.63;4975067;28;20324;-77
2021/12/07 02:42:00;;;;;;;;;;;;;;;2.95;92.34;99992.94;4972517;28;20262;-78
2021/12/07 02:44:25;;;;;;;;;;;;;;;3.03;91.69;100001.06;4962509;28;19915;-77
2021/12/07 02:46:50;;;;;;;;;;;;;;;3.23;90.92;100006.69;4974539;28;19904;-77
2021/12/07 02:49:15;;;;;;;;;;;;;;;3.11;90.71;100003.13;4973463;28;19911;-80
2021/12/07 02:51:41;;;;;;;;;;;;;;;3.18;91.28;100003.56;4967257;28;20256;-80
2021/12/07 02:54:06;;;;;;;;;;;;;;;3.13;90.83;99997.78;4976705;28;20181;-79
2021/12/07 02:56:31;;;;;;;;;;;;;;;3.20;90.48;100001.66;4987856;27;20504;-77
2021/12/07 02:59:01;;;;;;;;;;;;;;;3.16;90.74;100013.25;5001745;27;20205;-77
2021/12/07 03:01:31;;;;;;;;;;;;;;;3.16;91.23;100010.66;4955060;28;20175;-77
2021/12/07 03:06:42;;;;;;;;;;;;;;;3.23;91.73;100023.19;4988364;28;20104;-78
2021/12/07 03:28:16;;;;;;;;;;;;;;;3.47;92.44;100064.28;5008709;28;20392;-78
2021/12/07 03:30:41;;;;;;;;;;;;;;;3.52;92.69;100079.63;5006918;28;20497;-78
2021/12/07 03:33:07;;;;;;;;;;;;;;;3.55;92.32;100082.03;5007535;28;20359;-78
2021/12/07 03:35:32;;;;;;;;;;;;;;;3.58;92.66;100084.41;4990055;28;20008;-78
2021/12/07 03:37:58;;;;;;;;;;;;;;;3.55;92.76;100090.72;5009249;28;20323;-78
2021/12/07 03:40:23;;;;;;;;;;;;;;;3.55;92.85;100089.88;5001112;28;19915;-79
2021/12/07 03:42:48;;;;;;;;;;;;;;;3.68;91.94;100089.84;5007922;28;19923;-78
2021/12/07 03:45:15;;;;;;;;;;;;;;;3.66;91.92;100092.56;5002624;27;19916;-77
2021/12/07 03:47:40;;;;;;;;;;;;;;;3.63;92.06;100091.97;5006997;28;19900;-79
2021/12/07 03:50:06;;;;;;;;;;;;;;;3.61;91.93;100095.53;5005943;27;19908;-79
2021/12/07 03:52:31;;;;;;;;;;;;;;;3.59;91.77;100094.78;5007632;28;19922;-78
2021/12/07 03:54:57;;;;;;;;;;;;;;;3.63;92.07;100103.25;5007430;28;19965;-77
2021/12/07 03:57:22;;;;;;;;;;;;;;;3.76;91.59;100104.03;4991288;28;20265;-78
2021/12/07 03:59:47;;;;;;;;;;;;;;;3.70;91.45;100103.66;4993482;28;20424;-78
2021/12/07 04:02:12;;;;;;;;;;;;;;;3.69;91.73;100109.84;5008860;28;20194;-78
2021/12/07 04:04:38;;;;;;;;;;;;;;;3.74;92.02;100105.94;5008358;28;20273;-78
2021/12/07 04:07:04;;;;;;;;;;;;;;;3.92;90.98;100114.28;5007128;27;20151;-78
2021/12/07 04:09:30;;;;;;;;;;;;;;;3.80;90.52;100109.09;4999487;28;20214;-78
2021/12/07 04:11:55;;;;;;;;;;;;;;;3.89;90.50;100124.13;4992612;28;19928;-79
2021/12/07 04:14:20;;;;;;;;;;;;;;;3.90;90.48;100112.72;5014456;28;20621;-78
2021/12/07 04:16:46;;;;;;;;;;;;;;;3.99;89.67;100119.06;5011309;28;20402;-78
2021/12/07 04:19:11;;;;;;;;;;;;;;;3.91;90.19;100125.69;5011046;28;20311;-79
2021/12/07 04:21:36;;;;;;;;;;;;;;;3.94;89.59;100130.69;5001952;28;20142;-78
2021/12/07 04:24:01;;;;;;;;;;;;;;;3.94;89.97;100142.97;4989683;28;20506;-77
2021/12/07 04:26:27;;;;;;;;;;;;;;;4.08;88.69;100147.22;5002730;28;19911;-78
2021/12/07 04:28:52;;;;;;;;;;;;;;;4.00;88.68;100144.31;5011294;28;20054;-79
2021/12/07 04:31:17;;;;;;;;;;;;;;;4.05;88.33;100137.78;5010412;28;20394;-78
2021/12/07 04:33:43;;;;;;;;;;;;;;;4.05;88.12;100152.69;5008665;28;20489;-77
2021/12/07 04:36:08;;;;;;;;;;;;;;;3.90;88.60;100154.59;5000951;28;20149;-77
2021/12/07 04:38:33;;;;;;;;;;;;;;;3.87;88.40;100149.59;4988475;28;20397;-78
2021/12/07 04:40:59;;;;;;;;;;;;;;;3.87;87.94;100154.81;5002338;28;19956;-77
2021/12/07 04:43:24;;;;;;;;;;;;;;;3.87;87.69;100163.50;4990204;28;19912;-78
2021/12/07 04:57:48;;;;;;;;;;;;;;;3.86;88.38;100181.94;4989772;28;20315;-78
2021/12/07 04:59:40;;;;;;;;;;;;;;;3.86;88.74;100182.75;4972951;28;19971;-79
2021/12/07 05:02:06;;;;;;;;;;;;;;;3.87;88.07;100178.38;4972523;28;20301;-80
2021/12/07 05:04:34;;;;;;;;;;;;;;;3.86;88.12;100187.16;4966857;28;20328;-80
2021/12/07 05:07:10;;;;;;;;;;;;;;;3.88;88.01;100196.59;4985865;28;20356;-79
2021/12/07 05:14:32;;;;;;;;;;;;;;;3.72;88.66;100196.81;4958288;28;19938;-77
2021/12/07 05:25:22;;;;;;;;;;;;;;;3.69;88.82;100223.19;4995638;28;20398;-77
2021/12/07 05:38:32;;;;;;;;;;;;;;;3.83;88.43;100229.25;4947952;27;20633;-82
2021/12/07 05:40:57;;;;;;;;;;;;;;;3.87;87.99;100241.19;4932249;28;19915;-82
2021/12/07 05:43:22;;;;;;;;;;;;;;;3.81;88.16;100244.22;4944176;28;19915;-81
2021/12/07 05:45:47;;;;;;;;;;;;;;;3.72;88.28;100238.69;4994626;28;20246;-81
2021/12/07 05:48:13;;;;;;;;;;;;;;;3.70;89.08;100244.97;4996753;28;20032;-84
2021/12/07 05:50:38;;;;;;;;;;;;;;;3.71;89.40;100237.00;4993368;28;20248;-83
2021/12/07 05:53:04;;;;;;;;;;;;;;;3.75;89.32;100256.78;4992749;28;19919;-83
2021/12/07 05:55:30;;;;;;;;;;;;;;;3.78;88.92;100272.28;4988794;28;19903;-81
2021/12/07 05:57:55;;;;;;;;;;;;;;;3.78;88.74;100269.66;4970271;28;20256;-80
2021/12/07 06:00:25;;;;;;;;;;;;;;;3.77;88.79;100273.22;4973918;28;20363;-80
2021/12/07 06:02:54;;;;;;;;;;;;;;;3.80;89.07;100281.81;5000559;27;20316;-78
2021/12/07 06:05:20;;;;;;;;;;;;;;;3.81;89.20;100283.47;4966704;28;20315;-77
2021/12/07 06:07:45;;;;;;;;;;;;;;;3.78;88.63;100287.97;4970437;28;20159;-78
2021/12/07 06:10:10;;;;;;;;;;;;;;;3.87;87.66;100296.16;4979047;27;20153;-79
2021/12/07 06:12:35;;;;;;;;;;;;;;;3.90;87.75;100303.78;5008394;27;20339;-79
2021/12/07 06:15:01;;;;;;;;;;;;;;;3.86;87.54;100316.25;5007654;27;19912;-77
2021/12/07 06:17:26;;;;;;;;;;;;;;;3.91;87.76;100315.94;4993031;28;20258;-78
2021/12/07 06:19:51;;;;;;;;;;;;;;;3.83;87.71;100307.78;4953532;28;19915;-78
2021/12/07 06:22:16;;;;;;;;;;;;;;;3.91;87.30;100315.94;4933430;28;20887;-80
2021/12/07 06:24:42;;;;;;;;;;;;;;;3.84;87.56;100330.41;4929960;28;19960;-78
2021/12/07 06:27:07;;;;;;;;;;;;;;;3.79;88.24;100320.22;4947100;28;19980;-79
2021/12/07 06:29:32;;;;;;;;;;;;;;;3.81;87.86;100330.56;4937954;28;20033;-78
2021/12/07 06:31:57;;;;;;;;;;;;;;;3.80;87.69;100334.16;4950167;28;19932;-78
2021/12/07 06:34:23;;;;;;;;;;;;;;;4.11;86.65;100338.13;4949820;28;19912;-78
2021/12/07 06:36:48;;;;;;;;;;;;;;;4.00;86.21;100331.00;4939611;28;20334;-78
2021/12/07 06:39:13;;;;;;;;;;;;;;;4.00;86.34;100320.53;4946160;27;19912;-79
2021/12/07 06:41:38;;;;;;;;;;;;;;;3.94;86.71;100327.03;4972201;27;20091;-79
2021/12/07 06:44:04;;;;;;;;;;;;;;;3.97;86.88;100333.84;4960563;28;19998;-78
2021/12/07 06:46:29;;;;;;;;;;;;;;;4.05;85.63;100343.81;4940670;28;19914;-78
2021/12/07 06:48:54;;;;;;;;;;;;;;;3.94;85.80;100341.91;4949326;28;20500;-78
2021/12/07 06:51:20;;;;;;;;;;;;;;;4.02;85.33;100344.84;4964463;28;19937;-78
2021/12/07 06:53:45;;;;;;;;;;;;;;;3.92;86.35;100349.88;4955157;28;20764;-79
2021/12/07 06:56:10;;;;;;;;;;;;;;;3.85;86.99;100332.06;4933979;28;20952;-78
2021/12/07 06:58:35;;;;;;;;;;;;;;;3.80;87.41;100340.22;4950442;28;20352;-78
2021/12/07 07:01:01;;;;;;;;;;;;;;;3.79;87.59;100343.78;4932021;28;20364;-78
2021/12/07 07:03:26;;;;;;;;;;;;;;;3.81;86.27;100322.72;4960146;28;20167;-78
2021/12/07 07:05:52;;;;;;;;;;;;;;;3.83;86.33;100347.03;4947575;28;19968;-77
2021/12/07 07:08:17;;;;;;;;;;;;;;;3.83;85.93;100360.13;4947939;27;20329;-77
2021/12/07 07:10:43;;;;;;;;;;;;;;;3.78;86.22;100348.19;4967372;28;19908;-77
2021/12/07 07:13:08;;;;;;;;;;;;;;;3.76;85.80;100351.84;4978192;28;20335;-78
2021/12/07 07:15:33;;;;;;;;;;;;;;;3.83;85.72;100368.78;4939409;28;19919;-78
2021/12/07 07:18:00;;;;;;;;;;;;;;;3.86;85.53;100365.97;4965179;28;20706;-78
2021/12/07 07:20:25;;;;;;;;;;;;;;;4.00;84.81;100349.34;4943175;28;20250;-78
2021/12/07 07:22:51;;;;;;;;;;;;;;;3.91;84.79;100347.38;4960481;28;19919;-78
2021/12/07 07:25:16;;;;;;;;;;;;;;;3.90;85.71;100356.97;4961651;28;20387;-79
2021/12/07 07:27:41;;;;;;;;;;;;;;;3.89;86.00;100364.94;4941247;28;19908;-79
2021/12/07 07:30:07;;;;;;;;;;;;;;;3.87;85.10;100370.28;4951056;28;20602;-78
2021/12/07 07:32:32;;;;;;;;;;;;;;;3.85;85.35;100372.16;4932432;28;20016;-78
2021/12/07 07:34:57;;;;;;;;;;;;;;;3.82;85.48;100392.47;4920212;28;20221;-78
2021/12/07 07:37:23;;;;;;;;;;;;;;;3.86;85.54;100386.09;4936149;28;20726;-80
2021/12/07 07:39:48;;;;;;;;;;;;;;;3.84;85.28;100390.59;4955480;28;20252;-78
2021/12/07 07:42:13;;;;;;;;;;;;;;;3.93;85.10;100392.59;4955627;28;20038;-78
2021/12/07 07:44:38;;;;;;;;;;;;;;;3.84;84.93;100395.84;4979154;27;20717;-78
2021/12/07 07:47:04;;;;;;;;;;;;;;;3.80;84.52;100396.97;4955302;28;20371;-77
2021/12/07 07:49:29;;;;;;;;;;;;;;;3.81;84.86;100399.47;4951788;28;19908;-78
2021/12/07 07:51:54;;;;;;;;;;;;;;;3.80;84.71;100387.34;4953359;28;20212;-77
2021/12/07 07:54:19;;;;;;;;;;;;;;;3.78;84.76;100395.28;4950553;28;20005;-77
2021/12/07 07:56:46;;;;;;;;;;;;;;;3.77;85.00;100393.59;4958108;28;20225;-77
2021/12/07 07:59:11;;;;;;;;;;;;;;;3.84;85.31;100403.69;4945443;28;19933;-80
2021/12/07 08:01:36;;;;;;;;;;;;;;;3.80;85.05;100405.66;4944271;28;20469;-77
2021/12/07 08:04:03;;;;;;;;;;;;;;;3.80;85.02;100400.41;4915441;28;20014;-77
2021/12/07 08:06:28;;;;;;;;;;;;;;;3.77;85.35;100401.44;4937332;28;20291;-77
2021/12/07 08:08:53;;;;;;;;;;;;;;;3.71;85.53;100404.47;4963065;28;20002;-78
2021/12/07 08:11:19;;;;;;;;;;;;;;;3.75;85.02;100395.50;4955308;28;20386;-80
2021/12/07 08:13:44;;;;;;;;;;;;;;;3.84;84.23;100399.28;4989840;28;20152;-80
2021/12/07 08:16:15;;;;;;;;;;;;;;;3.81;84.37;100414.31;5004436;28;19952;-83
2021/12/07 08:18:44;;;;;;;;;;;;;;;3.83;84.21;100399.38;4991668;28;19900;-81
2021/12/07 08:21:09;;;;;;;;;;;;;;;3.92;83.71;100393.50;4986990;28;19915;-81
2021/12/07 08:23:35;;;;;;;;;;;;;;;3.89;83.68;100396.34;4987189;28;19938;-80
2021/12/07 08:26:01;;;;;;;;;;;;;;;4.01;83.29;100397.31;4975814;28;20169;-79
2021/12/07 08:28:26;;;;;;;;;;;;;;;4.01;82.57;100400.75;4970036;28;19910;-81
2021/12/07 08:30:51;;;;;;;;;;;;;;;4.02;83.51;100398.97;4998404;28;20314;-81
2021/12/07 08:33:16;;;;;;;;;;;;;;;4.04;83.67;100404.97;4969472;28;20288;-80
2021/12/07 08:35:42;;;;;;;;;;;;;;;4.09;84.02;100411.56;4986964;28;20212;-80
2021/12/07 08:38:07;;;;;;;;;;;;;;;4.19;83.50;100397.84;4984857;28;19934;-80
2021/12/07 08:40:32;;;;;;;;;;;;;;;4.10;83.08;100394.91;4979922;28;20305;-79
2021/12/07 08:42:57;;;;;;;;;;;;;;;4.00;82.97;100401.69;4969831;28;20012;-79
2021/12/07 08:45:23;;;;;;;;;;;;;;;4.00;83.69;100399.06;5007194;27;20419;-80
2021/12/07 08:47:48;;;;;;;;;;;;;;;3.95;84.21;100406.41;4988929;28;19904;-79
2021/12/07 08:50:17;;;;;;;;;;;;;;;3.89;84.38;100405.06;4993413;28;20197;-81
2021/12/07 08:52:43;;;;;;;;;;;;;;;3.95;83.82;100422.13;4972585;28;20653;-78
2021/12/07 09:00:26;;;;;;;;;;;;;;;3.99;82.85;100421.00;4943990;28;20271;-80
2021/12/07 09:02:51;;;;;;;;;;;;;;;4.04;82.53;100434.59;4933269;28;19904;-79
2021/12/07 09:05:17;;;;;;;;;;;;;;;4.18;80.83;100420.56;4915939;28;20224;-79
2021/12/07 09:07:43;;;;;;;;;;;;;;;4.15;80.76;100425.19;4914237;28;19908;-80
2021/12/07 09:10:08;;;;;;;;;;;;;;;4.05;80.99;100417.94;4970042;27;19916;-80
2021/12/07 09:12:33;;;;;;;;;;;;;;;4.12;81.82;100428.84;4945479;28;20065;-79
2021/12/07 09:14:59;;;;;;;;;;;;;;;4.22;81.55;100426.47;4953266;28;20169;-79
2021/12/07 09:17:24;;;;;;;;;;;;;;;4.21;82.17;100432.63;4951012;28;19912;-80
2021/12/07 09:19:49;;;;;;;;;;;;;;;4.25;80.95;100431.47;4959628;28;20510;-79
2021/12/07 09:22:14;;;;;;;;;;;;;;;4.24;81.44;100435.88;4945938;28;19907;-79
2021/12/07 09:24:40;;;;;;;;;;;;;;;4.33;81.54;100437.03;4957566;28;19907;-79
2021/12/07 09:27:05;;;;;;;;;;;;;;;4.33;81.41;100442.28;4935996;28;20219;-78
2021/12/07 09:29:30;;;;;;;;;;;;;;;4.23;82.70;100436.81;4966729;28;20388;-79
2021/12/07 09:31:56;;;;;;;;;;;;;;;4.23;82.60;100451.69;4971155;28;20020;-80
2021/12/07 09:34:21;;;;;;;;;;;;;;;4.29;83.00;100451.28;4939010;28;20087;-79
2021/12/07 09:36:46;;;;;;;;;;;;;;;4.29;82.03;100441.63;4941361;28;20219;-78
2021/12/07 09:39:12;;;;;;;;;;;;;;;4.21;81.50;100440.50;4932387;28;19976;-80
2021/12/07 09:41:38;;;;;;;;;;;;;;;4.41;81.77;100445.22;4938476;27;20215;-79
2021/12/07 09:44:03;;;;;;;;;;;;;;;4.56;81.07;100448.56;4961743;27;20020;-80
2021/12/07 09:46:28;;;;;;;;;;;;;;;4.46;80.33;100439.66;4945363;27;20884;-79
2021/12/07 09:48:54;;;;;;;;;;;;;;;4.70;80.18;100450.25;4946855;27;20554;-79
2021/12/07 09:51:19;;;;;;;;;;;;;;;4.93;79.09;100440.75;4951804;27;20707;-79
2021/12/07 09:53:45;;;;;;;;;;;;;;;5.13;77.37;100447.25;4973224;28;20047;-80
2021/12/07 09:56:11;;;;;;;;;;;;;;;5.76;75.66;100441.84;4979827;28;20415;-79
2021/12/07 09:58:36;;;;;;;;;;;;;;;6.28;73.19;100446.81;4979019;28;20192;-78
2021/12/07 10:01:01;;;;;;;;;;;;;;;7.10;70.67;100446.59;4973799;28;19956;-81
2021/12/07 10:03:26;;;;;;;;;;;;;;;7.23;68.90;100446.44;4998295;28;20353;-78
2021/12/07 10:05:52;;;;;;;;;;;;;;;7.06;68.74;100447.78;4971353;28;19912;-81
2021/12/07 10:08:17;;;;;;;;;;;;;;;7.23;68.03;100441.19;4978288;27;20199;-78
2021/12/07 10:10:46;;;;;;;;;;;;;;;7.59;68.50;100433.06;4985652;28;19957;-78
2021/12/07 10:13:11;;;;;;;;;;;;;;;8.58;66.14;100423.09;4972341;28;20032;-79
2021/12/07 10:15:37;;;;;;;;;;;;;;;8.93;63.77;100433.22;4971837;28;20362;-79
2021/12/07 10:18:12;;;;;;;;;;;;;;;9.04;62.53;100423.53;4951500;28;20599;-77
2021/12/07 10:20:39;;;;;;;;;;;;;;;9.26;63.09;100418.06;4966774;28;19908;-79
2021/12/07 10:23:15;;;;;;;;;;;;;;;9.30;61.95;100410.69;4970059;28;20020;-80
2021/12/07 10:25:41;;;;;;;;;;;;;;;8.96;61.15;100404.91;4971117;28;20000;-82
2021/12/07 10:28:25;;;;;;;;;;;;;;;8.84;62.68;100410.31;4971630;28;20255;-80
2021/12/07 10:30:51;;;;;;;;;;;;;;;8.98;62.10;100397.69;4993305;28;19912;-81
2021/12/07 10:33:21;;;;;;;;;;;;;;;8.63;62.80;100386.63;4964267;28;20248;-80
2021/12/07 10:35:46;;;;;;;;;;;;;;;8.63;62.71;100383.13;4976204;28;20309;-79
2021/12/07 10:38:13;;;;;;;;;;;;;;;8.15;63.46;100369.56;4969956;28;19991;-80
2021/12/07 10:40:57;;;;;;;;;;;;;;;8.32;64.29;100376.03;4973407;28;20398;-80
2021/12/07 10:43:41;;;;;;;;;;;;;;;8.15;63.20;100380.13;4992436;28;20433;-80
2021/12/07 10:46:25;;;;;;;;;;;;;;;8.53;62.30;100383.09;4969443;28;20321;-80
2021/12/07 10:48:50;;;;;;;;;;;;;;;9.14;61.54;100379.53;4985222;28;20266;-80
2021/12/07 10:51:15;;;;;;;;;;;;;;;9.65;59.29;100371.50;4971066;28;20377;-80
2021/12/07 10:53:50;;;;;;;;;;;;;;;9.59;59.50;100375.53;4957791;28;20821;-78
2021/12/07 10:56:31;;;;;;;;;;;;;;;9.72;59.12;100373.44;4974782;28;20009;-79
2021/12/07 10:59:04;;;;;;;;;;;;;;;9.84;59.04;100370.63;4972635;28;19922;-80
2021/12/07 11:01:39;;;;;;;;;;;;;;;9.92;58.55;100360.19;4965320;28;20324;-79
2021/12/07 11:04:23;;;;;;;;;;;;;;;9.32;59.29;100376.22;4969356;28;20327;-79
2021/12/07 11:07:05;;;;;;;;;;;;;;;9.40;59.98;100382.47;4990640;28;19927;-79
2021/12/07 11:09:30;;;;;;;;;;;;;;;10.34;58.53;100367.78;4986527;27;20301;-79
2021/12/07 11:12:08;;;;;;;;;;;;;;;10.63;55.82;100358.88;4946034;28;19908;-80
2021/12/07 11:14:53;;;;;;;;;;;;;;;11.09;55.18;100353.59;4950827;28;20877;-80
2021/12/07 11:17:23;;;;;;;;;;;;;;;11.24;53.81;100341.50;4934496;28;20506;-78
2021/12/07 11:19:49;;;;;;;;;;;;;;;11.53;52.95;100343.09;4928845;28;20222;-78
2021/12/07 11:22:18;;;;;;;;;;;;;;;11.29;53.88;100333.94;4908826;28;20275;-78
2021/12/07 11:24:44;;;;;;;;;;;;;;;10.21;55.09;100333.69;4945387;28;20255;-81
2021/12/07 11:30:20;;;;;;;;;;;;;;;10.69;52.73;100331.00;4936027;28;20239;-79
2021/12/07 11:32:55;;;;;;;;;;;;;;;11.28;52.49;100313.75;4951957;28;20275;-82
2021/12/07 11:35:38;;;;;;;;;;;;;;;11.78;49.77;100308.81;4934020;28;20380;-81
2021/12/07 11:38:05;;;;;;;;;;;;;;;11.96;49.34;100298.19;4945745;28;19934;-79
2021/12/07 11:40:31;;;;;;;;;;;;;;;11.94;48.94;100295.69;4910400;28;20410;-79
2021/12/07 11:42:57;;;;;;;;;;;;;;;11.43;48.30;100316.66;4921348;28;20306;-79
2021/12/07 11:45:25;;;;;;;;;;;;;;;11.76;48.10;100297.53;4923669;28;20470;-79
2021/12/07 11:48:00;;;;;;;;;;;;;;;13.37;45.24;100300.31;4925952;28;20028;-80
2021/12/07 11:50:25;;;;;;;;;;;;;;;14.18;42.77;100295.03;4924982;28;20017;-80
2021/12/07 11:52:52;;;;;;;;;;;;;;;14.37;41.97;100294.63;4967790;27;19934;-80
2021/12/07 11:55:17;;;;;;;;;;;;;;;13.65;41.85;100300.78;4956254;28;20343;-79
2021/12/07 11:57:42;;;;;;;;;;;;;;;12.96;42.44;100289.59;4941331;27;19908;-79
2021/12/07 12:00:11;;;;;;;;;;;;;;;12.49;42.71;100293.63;4944029;27;20320;-78
2021/12/07 12:02:37;;;;;;;;;;;;;;;11.75;44.46;100287.94;4950849;28;19953;-78
2021/12/07 12:05:02;;;;;;;;;;;;;;;12.40;43.88;100278.69;4948690;28;20232;-79
2021/12/07 12:07:28;;;;;;;;;;;;;;;12.74;43.38;100283.91;4916987;28;19908;-79
2021/12/07 12:09:54;;;;;;;;;;;;;;;12.24;43.36;100285.59;4950418;28;19915;-79
2021/12/07 12:12:41;;;;;;;;;;;;;;;11.83;44.91;100280.00;4960085;27;19934;-79
2021/12/07 12:15:09;;;;;;;;;;;;;;;11.20;45.98;100284.53;4980177;27;19946;-79
2021/12/07 12:17:46;;;;;;;;;;;;;;;10.67;46.57;100286.16;4996140;27;20638;-79
2021/12/07 12:20:15;;;;;;;;;;;;;;;10.25;48.06;100276.91;4972979;27;20253;-79
2021/12/07 12:22:52;;;;;;;;;;;;;;;10.63;48.26;100293.56;4974910;27;19903;-82
2021/12/07 12:25:19;;;;;;;;;;;;;;;11.09;47.27;100276.81;4972299;27;19903;-78
2021/12/07 12:27:45;;;;;;;;;;;;;;;10.52;48.00;100285.84;4969625;27;20443;-79
2021/12/07 12:30:26;;;;;;;;;;;;;;;10.56;48.63;100278.41;4932704;27;20083;-79
2021/12/07 12:33:01;;;;;;;;;;;;;;;10.11;49.20;100266.78;4949317;28;20024;-79
2021/12/07 12:35:28;;;;;;;;;;;;;;;10.07;49.94;100268.06;4947145;28;20677;-80
2021/12/07 12:37:53;;;;;;;;;;;;;;;10.34;49.68;100267.28;4969965;28;20154;-80
2021/12/07 12:40:29;;;;;;;;;;;;;;;10.31;48.21;100259.59;4938951;28;20152;-79
2021/12/07 12:42:55;;;;;;;;;;;;;;;9.96;47.86;100251.38;4949165;28;20731;-79
2021/12/07 12:45:22;;;;;;;;;;;;;;;10.03;48.02;100248.19;4932775;28;20235;-80
2021/12/07 12:47:54;;;;;;;;;;;;;;;10.55;46.75;100242.38;4969393;27;19908;-78
2021/12/07 12:50:20;;;;;;;;;;;;;;;10.34;47.43;100243.47;4929415;28;19914;-81
2021/12/07 12:52:47;;;;;;;;;;;;;;;10.99;46.25;100247.78;4943942;28;20149;-81
2021/12/07 12:55:27;;;;;;;;;;;;;;;11.07;45.84;100239.06;4926733;28;19916;-78
2021/12/07 12:57:52;;;;;;;;;;;;;;;11.95;45.36;100232.91;4936239;28;19955;-79
2021/12/07 13:00:18;;;;;;;;;;;;;;;12.12;43.47;100247.06;4963979;28;20012;-80
2021/12/07 13:02:46;;;;;;;;;;;;;;;11.41;44.83;100235.66;4942301;28;20270;-79
2021/12/07 13:05:15;;;;;;;;;;;;;;;12.29;42.67;100235.50;4922279;28;20239;-80
2021/12/07 13:07:40;;;;;;;;;;;;;;;12.49;42.31;100237.91;4926170;28;19930;-80
2021/12/07 13:10:05;;;;;;;;;;;;;;;11.22;44.34;100237.53;4996192;27;20182;-81
2021/12/07 13:12:38;;;;;;;;;;;;;;;11.16;45.21;100240.78;4960883;27;19920;-81
2021/12/07 13:15:07;;;;;;;;;;;;;;;10.42;48.04;100240.06;4978963;27;20510;-80
2021/12/07 13:17:42;;;;;;;;;;;;;;;11.21;45.73;100241.19;4967321;27;20691;-79
2021/12/07 13:20:27;;;;;;;;;;;;;;;11.19;45.94;100243.13;4972130;27;19951;-79
2021/12/07 13:22:54;;;;;;;;;;;;;;;11.27;45.17;100245.03;4968397;27;20288;-78
2021/12/07 13:25:21;;;;;;;;;;;;;;;10.60;46.31;100235.66;4951209;28;19980;-79
2021/12/07 13:28:16;;;;;;;;;;;;;;;11.32;44.93;100226.84;4952382;28;20367;-79
2021/12/07 13:30:44;;;;;;;;;;;;;;;10.97;45.03;100232.03;4929512;28;20182;-80
2021/12/07 13:33:13;;;;;;;;;;;;;;;9.66;47.45;100226.06;4934437;28;20136;-80
2021/12/07 13:35:38;;;;;;;;;;;;;;;9.74;49.11;100214.75;4937309;28;20138;-78
2021/12/07 13:38:13;;;;;;;;;;;;;;;10.26;48.14;100217.72;4901850;27;20424;-79
2021/12/07 13:40:40;;;;;;;;;;;;;;;9.94;48.42;100204.94;4906134;28;20405;-79
2021/12/07 13:43:05;;;;;;;;;;;;;;;9.89;48.15;100189.53;4941457;28;20703;-81
2021/12/07 13:45:31;;;;;;;;;;;;;;;8.86;50.37;100188.53;4950781;28;19984;-80
2021/12/07 13:47:56;;;;;;;;;;;;;;;7.93;52.58;100180.84;4974516;28;20471;-81
2021/12/07 13:50:26;;;;;;;;;;;;;;;7.74;53.94;100177.19;4935278;28;20678;-80
2021/12/07 13:52:52;;;;;;;;;;;;;;;7.40;53.69;100179.22;4943760;28;20375;-81
2021/12/07 13:55:19;;;;;;;;;;;;;;;7.22;54.72;100161.41;4943417;28;19937;-81
2021/12/07 13:57:47;;;;;;;;;;;;;;;6.77;55.84;100161.66;4958909;28;20654;-79
2021/12/07 14:00:20;;;;;;;;;;;;;;;6.61;56.80;100171.75;4972523;28;20145;-78
2021/12/07 14:02:46;;;;;;;;;;;;;;;6.47;56.68;100176.34;4961687;28;19910;-78
2021/12/07 14:05:12;;;;;;;;;;;;;;;6.28;57.82;100170.91;4935057;27;19956;-79
2021/12/07 14:07:37;;;;;;;;;;;;;;;6.18;58.40;100166.38;4952866;28;20549;-79
2021/12/07 14:10:06;;;;;;;;;;;;;;;6.31;58.62;100166.22;4944394;28;20143;-79
2021/12/07 14:12:31;;;;;;;;;;;;;;;6.09;58.95;100161.88;4955274;28;19924;-80
2021/12/07 14:15:04;;;;;;;;;;;;;;;5.97;59.66;100157.56;4957346;28;20135;-78
2021/12/07 14:17:37;;;;;;;;;;;;;;;5.76;60.58;100153.03;4959272;28;20002;-79
2021/12/07 14:20:02;;;;;;;;;;;;;;;5.52;61.06;100147.09;4957488;28;20301;-79
2021/12/07 14:22:27;;;;;;;;;;;;;;;5.57;60.63;100139.66;4957396;28;20106;-81
2021/12/07 14:24:52;;;;;;;;;;;;;;;5.56;61.63;100138.03;4966323;28;19921;-81
2021/12/07 14:27:18;;;;;;;;;;;;;;;5.51;61.40;100130.50;4979133;27;20355;-78